createdAt,value
2023-02-17T00:01:42.664Z,23.35
2023-02-17T00:04:13.719Z,23.73
2023-02-17T00:06:42.436Z,26.30
2023-02-17T00:09:11.612Z,30.45
2023-02-17T00:11:41.725Z,26.93
2023-02-17T00:14:12.771Z,25.82
2023-02-17T00:16:41.253Z,25.60
2023-02-17T00:19:12.559Z,21.52
2023-02-17T00:21:41.014Z,20.95
2023-02-17T00:24:10.105Z,20.88
2023-02-17T00:26:40.424Z,19.67
2023-02-17T00:29:09.284Z,18.85
2023-02-17T00:31:38.359Z,18.50
2023-02-17T00:34:07.168Z,18.92
2023-02-17T00:36:36.839Z,20.00
2023-02-17T00:39:06.116Z,17.05
2023-02-17T00:41:35.709Z,16.95
2023-02-17T00:44:04.920Z,15.50
2023-02-17T00:46:34.381Z,16.40
2023-02-17T00:49:03.881Z,15.13
2023-02-17T00:51:33.086Z,17.60
2023-02-17T00:54:03.038Z,16.67
2023-02-17T00:56:31.483Z,17.35
2023-02-17T00:59:00.504Z,16.45
2023-02-17T01:01:32.201Z,18.12
2023-02-17T01:04:00.226Z,16.95
2023-02-17T01:06:32.806Z,16.60
2023-02-17T01:09:02.006Z,16.15
2023-02-17T01:11:33.231Z,16.77
2023-02-17T01:14:02.554Z,15.48
2023-02-17T01:16:37.470Z,15.30
2023-02-17T01:19:12.124Z,16.48
2023-02-17T01:21:40.861Z,16.37
2023-02-17T01:24:11.878Z,16.55
2023-02-17T01:26:40.305Z,17.10
2023-02-17T01:29:10.546Z,16.23
2023-02-17T01:31:39.908Z,17.42
2023-02-17T01:34:10.780Z,16.95
2023-02-17T01:36:39.277Z,16.75
2023-02-17T01:39:07.890Z,18.37
2023-02-17T01:41:36.678Z,17.60
2023-02-17T01:44:18.720Z,18.25
2023-02-17T01:46:49.674Z,19.25
2023-02-17T01:49:39.827Z,19.20
2023-02-17T01:52:20.481Z,18.32
2023-02-17T01:55:06.012Z,18.52
2023-02-17T01:57:37.419Z,17.77
2023-02-17T02:00:09.236Z,16.97
2023-02-17T02:02:47.661Z,17.73
2023-02-17T02:05:17.831Z,18.05
2023-02-17T02:07:46.862Z,18.00
2023-02-17T02:10:15.775Z,17.25
2023-02-17T02:12:44.465Z,19.17
2023-02-17T02:15:21.635Z,17.05
2023-02-17T02:18:18.342Z,18.23
2023-02-17T02:21:20.004Z,15.58
2023-02-17T02:24:05.997Z,15.20
2023-02-17T02:26:59.965Z,16.67
2023-02-17T02:29:50.463Z,14.70
2023-02-17T02:32:50.010Z,15.85
2023-02-17T02:35:30.485Z,14.45
2023-02-17T02:38:14.059Z,14.75
2023-02-17T02:40:50.653Z,13.68
2023-02-17T02:43:20.250Z,13.40
2023-02-17T02:45:49.828Z,13.72
2023-02-17T02:48:18.902Z,13.50
2023-02-17T02:50:59.268Z,13.90
2023-02-17T02:53:51.741Z,12.70
2023-02-17T02:56:51.692Z,13.18
2023-02-17T02:59:53.187Z,12.40
2023-02-17T03:02:33.077Z,13.15
2023-02-17T03:05:28.884Z,14.43
2023-02-17T03:08:15.359Z,13.65
2023-02-17T03:10:50.166Z,13.50
2023-02-17T03:13:20.607Z,13.98
2023-02-17T03:15:49.569Z,14.03
2023-02-17T03:18:18.018Z,14.45
2023-02-17T03:20:54.868Z,13.62
2023-02-17T03:23:24.109Z,12.23
2023-02-17T03:25:53.331Z,13.05
2023-02-17T03:28:22.012Z,13.58
2023-02-17T03:30:50.775Z,13.03
2023-02-17T03:33:20.024Z,13.05
2023-02-17T03:35:48.665Z,13.10
2023-02-17T03:38:17.363Z,14.10
2023-02-17T03:40:46.583Z,13.35
2023-02-17T03:43:17.893Z,14.30
2023-02-17T03:45:46.760Z,14.55
2023-02-17T03:48:17.692Z,15.30
2023-02-17T03:50:46.529Z,13.75
2023-02-17T03:53:15.105Z,15.78
2023-02-17T03:55:44.129Z,15.72
2023-02-17T03:58:12.740Z,15.38
2023-02-17T04:00:41.436Z,15.40
2023-02-17T04:03:11.716Z,14.75
2023-02-17T04:05:40.685Z,14.93
2023-02-17T04:08:09.478Z,15.58
2023-02-17T04:10:39.082Z,16.67
2023-02-17T04:13:07.658Z,16.37
2023-02-17T04:15:37.900Z,17.00
2023-02-17T04:18:06.696Z,17.07
2023-02-17T04:20:35.980Z,16.12
2023-02-17T04:23:04.939Z,16.52
2023-02-17T04:25:36.872Z,16.80
2023-02-17T04:28:06.533Z,15.35
2023-02-17T04:30:35.927Z,15.80
2023-02-17T04:33:06.066Z,15.70
2023-02-17T04:35:34.894Z,15.50
2023-02-17T04:38:04.829Z,15.78
2023-02-17T04:40:33.831Z,16.32
2023-02-17T04:43:03.139Z,16.75
2023-02-17T04:45:31.845Z,15.08
2023-02-17T04:48:00.780Z,16.52
2023-02-17T04:50:31.096Z,14.70
2023-02-17T04:52:59.641Z,15.08
2023-02-17T04:55:29.464Z,14.73
2023-02-17T04:57:57.874Z,15.72
2023-02-17T05:00:26.576Z,15.50
2023-02-17T05:02:55.894Z,16.32
2023-02-17T05:05:24.558Z,16.30
2023-02-17T05:07:53.405Z,16.27
2023-02-17T05:10:24.970Z,15.03
2023-02-17T05:12:54.136Z,15.78
2023-02-17T05:15:25.935Z,16.15
2023-02-17T05:17:54.850Z,15.53
2023-02-17T05:20:24.976Z,15.83
2023-02-17T05:22:53.686Z,16.95
2023-02-17T05:25:22.373Z,16.07
2023-02-17T05:27:51.211Z,15.60
2023-02-17T05:30:20.926Z,15.30
2023-02-17T05:32:51.098Z,15.80
2023-02-17T05:35:21.926Z,15.70
2023-02-17T05:37:53.724Z,15.85
2023-02-17T05:40:22.430Z,15.72
2023-02-17T05:42:52.735Z,16.57
2023-02-17T05:45:21.935Z,17.05
2023-02-17T05:47:50.712Z,16.15
2023-02-17T05:50:19.545Z,15.80
2023-02-17T05:52:50.011Z,16.05
2023-02-17T05:55:19.560Z,17.25
2023-02-17T05:57:49.967Z,16.45
2023-02-17T06:00:21.153Z,16.77
2023-02-17T06:02:49.973Z,16.73
2023-02-17T06:05:18.725Z,16.30
2023-02-17T06:07:47.695Z,14.30
2023-02-17T06:10:19.007Z,15.43
2023-02-17T06:12:50.390Z,15.00
2023-02-17T06:15:19.317Z,15.38
2023-02-17T06:17:49.046Z,14.80
2023-02-17T06:20:18.207Z,16.37
2023-02-17T06:22:46.982Z,15.25
2023-02-17T06:25:16.219Z,15.55
2023-02-17T06:27:45.086Z,15.48
2023-02-17T06:30:17.148Z,14.28
2023-02-17T06:32:45.926Z,13.58
2023-02-17T06:35:17.031Z,14.03
2023-02-17T06:37:45.627Z,12.95
2023-02-17T06:40:16.550Z,12.55
2023-02-17T06:42:46.698Z,13.18
2023-02-17T06:45:16.467Z,12.45
2023-02-17T06:47:46.496Z,12.13
2023-02-17T06:50:16.381Z,12.37
2023-02-17T06:52:46.697Z,11.85
2023-02-17T06:55:15.488Z,12.18
2023-02-17T06:57:45.611Z,13.03
2023-02-17T07:00:16.462Z,12.78
2023-02-17T07:02:45.771Z,12.93
2023-02-17T07:05:14.818Z,11.90
2023-02-17T07:07:45.162Z,14.87
2023-02-17T07:10:15.097Z,14.00
2023-02-17T07:12:46.488Z,13.50
2023-02-17T07:15:17.177Z,12.95
2023-02-17T07:17:45.949Z,12.00
2023-02-17T07:20:14.902Z,12.25
2023-02-17T07:22:44.522Z,12.25
2023-02-17T07:25:13.465Z,12.30
2023-02-17T07:27:43.756Z,11.70
2023-02-17T07:30:12.932Z,12.78
2023-02-17T07:32:41.447Z,12.70
2023-02-17T07:35:10.433Z,10.98
2023-02-17T07:37:39.309Z,12.43
2023-02-17T07:40:08.669Z,11.80
2023-02-17T07:42:38.980Z,12.50
2023-02-17T07:45:08.665Z,11.75
2023-02-17T07:47:38.827Z,11.57
2023-02-17T07:50:08.552Z,10.70
2023-02-17T07:52:38.572Z,12.75
2023-02-17T07:55:08.328Z,11.75
2023-02-17T07:57:37.204Z,12.60
2023-02-17T08:00:10.554Z,11.45
2023-02-17T08:02:43.354Z,12.33
2023-02-17T08:05:14.411Z,12.33
2023-02-17T08:07:44.143Z,12.53
2023-02-17T08:10:34.714Z,13.48
2023-02-17T08:13:20.608Z,12.37
2023-02-17T08:15:51.310Z,12.28
2023-02-17T08:18:19.766Z,13.38
2023-02-17T08:20:50.548Z,13.20
2023-02-17T08:23:21.681Z,12.28
2023-02-17T08:25:50.222Z,12.98
2023-02-17T08:28:21.240Z,12.15
2023-02-17T08:30:49.925Z,12.18
2023-02-17T08:33:18.838Z,13.85
2023-02-17T08:35:47.790Z,13.93
2023-02-17T08:38:17.523Z,13.60
2023-02-17T08:40:47.117Z,15.63
2023-02-17T08:43:17.059Z,14.60
2023-02-17T08:45:46.164Z,12.80
2023-02-17T08:48:14.959Z,14.07
2023-02-17T08:50:49.427Z,13.90
2023-02-17T08:53:18.909Z,15.03
2023-02-17T08:55:49.785Z,13.88
2023-02-17T08:58:19.309Z,13.05
2023-02-17T09:00:51.439Z,13.00
2023-02-17T09:03:20.463Z,13.25
2023-02-17T09:05:57.515Z,13.98
2023-02-17T09:08:26.493Z,14.98
2023-02-17T09:10:56.758Z,16.25
2023-02-17T09:13:26.634Z,15.43
2023-02-17T09:15:55.502Z,16.70
2023-02-17T09:18:25.867Z,15.68
2023-02-17T09:20:54.503Z,15.32
2023-02-17T09:23:23.596Z,13.78
2023-02-17T09:26:05.353Z,15.32
2023-02-17T09:28:36.051Z,15.53
2023-02-17T09:31:17.254Z,15.53
2023-02-17T09:33:47.631Z,15.48
2023-02-17T09:36:22.490Z,15.93
2023-02-17T09:38:51.518Z,16.35
2023-02-17T09:41:40.091Z,17.17
2023-02-17T09:44:28.985Z,15.53
2023-02-17T09:47:03.138Z,16.40
2023-02-17T09:49:46.566Z,17.55
2023-02-17T09:52:33.398Z,16.85
2023-02-17T09:55:19.786Z,16.02
2023-02-17T09:57:55.040Z,14.53
2023-02-17T10:00:49.052Z,14.93
2023-02-17T10:03:30.374Z,15.08
2023-02-17T10:06:13.987Z,15.03
2023-02-17T10:09:03.101Z,14.55
2023-02-17T10:11:57.560Z,15.13
2023-02-17T10:15:03.956Z,15.28
2023-02-17T10:17:48.057Z,15.08
2023-02-17T10:20:36.440Z,14.53
2023-02-17T10:23:16.798Z,16.07
2023-02-17T10:26:16.549Z,13.48
2023-02-17T10:28:56.006Z,13.65
2023-02-17T10:31:33.141Z,14.13
2023-02-17T10:34:08.019Z,14.15
2023-02-17T10:36:47.290Z,13.68
2023-02-17T10:39:45.667Z,13.00
2023-02-17T10:42:33.396Z,13.20
2023-02-17T10:45:34.921Z,13.35
2023-02-17T10:48:25.855Z,27.52
2023-02-17T10:50:54.663Z,12.93
2023-02-17T10:53:25.406Z,13.98
2023-02-17T10:56:07.328Z,13.43
2023-02-17T10:59:06.145Z,14.45
2023-02-17T11:01:36.411Z,12.63
2023-02-17T11:04:08.128Z,14.15
2023-02-17T11:06:42.574Z,13.28
2023-02-17T11:09:31.071Z,14.33
2023-02-17T11:12:04.805Z,14.28
2023-02-17T11:14:35.865Z,13.95
2023-02-17T11:17:30.223Z,12.90
2023-02-17T11:20:04.466Z,16.00
2023-02-17T11:22:40.655Z,13.53
2023-02-17T11:25:29.330Z,14.35
2023-02-17T11:28:04.598Z,13.60
2023-02-17T11:30:34.738Z,14.68
2023-02-17T11:33:19.128Z,14.75
2023-02-17T11:35:52.924Z,15.43
2023-02-17T11:38:28.866Z,14.95
2023-02-17T11:41:04.195Z,15.30
2023-02-17T11:43:34.612Z,19.10
2023-02-17T11:46:34.275Z,15.72
2023-02-17T11:49:21.114Z,16.32
2023-02-17T11:52:24.787Z,15.58
2023-02-17T11:55:22.887Z,16.42
2023-02-17T11:58:41.094Z,15.30
2023-02-17T12:01:40.149Z,14.45
2023-02-17T12:04:34.524Z,21.07
2023-02-17T12:07:35.164Z,17.37
2023-02-17T12:10:41.166Z,16.80
2023-02-17T12:13:35.515Z,16.57
2023-02-17T12:16:35.557Z,15.23
2023-02-17T12:19:34.889Z,16.82
2023-02-17T12:22:42.278Z,17.15
2023-02-17T12:25:26.814Z,17.55
2023-02-17T12:28:07.123Z,18.87
2023-02-17T12:31:02.542Z,18.10
2023-02-17T12:33:45.776Z,17.92
2023-02-17T12:36:18.359Z,25.15
2023-02-17T12:39:01.003Z,18.02
2023-02-17T12:41:38.495Z,17.37
2023-02-17T12:44:20.965Z,17.00
2023-02-17T12:46:58.435Z,16.90
2023-02-17T12:50:05.658Z,17.85
2023-02-17T12:52:40.672Z,18.02
2023-02-17T12:55:14.315Z,18.00
2023-02-17T12:57:51.609Z,16.70
2023-02-17T13:00:45.884Z,17.20
2023-02-17T13:03:15.288Z,16.67
2023-02-17T13:06:02.304Z,15.85
2023-02-17T13:08:55.371Z,14.95
2023-02-17T13:11:30.637Z,15.32
2023-02-17T13:14:31.481Z,16.40
2023-02-17T13:17:00.493Z,14.78
2023-02-17T13:19:34.786Z,15.63
2023-02-17T13:22:05.117Z,15.13
2023-02-17T13:24:39.655Z,15.58
2023-02-17T13:27:37.609Z,16.75
2023-02-17T13:32:47.548Z,17.65
2023-02-17T13:35:31.469Z,16.57
2023-02-17T13:38:02.131Z,16.67
2023-02-17T13:40:36.019Z,17.27
2023-02-17T13:43:12.353Z,18.27
2023-02-17T13:45:50.222Z,18.07
2023-02-17T13:48:34.867Z,17.25
2023-02-17T13:51:07.655Z,16.40
2023-02-17T13:53:42.347Z,18.55
2023-02-17T13:56:24.284Z,17.90
2023-02-17T13:58:52.915Z,17.17
2023-02-17T14:01:27.079Z,16.48
2023-02-17T14:03:57.376Z,17.50
2023-02-17T14:06:40.142Z,17.52
2023-02-17T14:09:31.942Z,16.12
2023-02-17T14:12:03.051Z,16.57
2023-02-17T14:14:37.781Z,17.87
2023-02-17T14:17:15.235Z,17.85
2023-02-17T14:19:48.698Z,20.60
2023-02-17T14:22:34.090Z,21.55
2023-02-17T14:25:09.767Z,21.17
2023-02-17T14:27:47.439Z,20.97
2023-02-17T14:30:37.301Z,18.82
2023-02-17T14:33:24.015Z,21.50
2023-02-17T14:36:00.410Z,21.65
2023-02-17T14:38:37.058Z,21.52
2023-02-17T14:41:06.258Z,21.50
2023-02-17T14:43:35.447Z,21.62
2023-02-17T14:46:05.204Z,22.17
2023-02-17T14:48:34.687Z,22.32
2023-02-17T14:51:10.641Z,20.97
2023-02-17T14:53:40.383Z,17.52
2023-02-17T14:56:28.520Z,16.30
2023-02-17T14:58:57.586Z,14.05
2023-02-17T15:01:26.206Z,13.83
2023-02-17T15:03:56.427Z,13.85
2023-02-17T15:06:43.435Z,13.40
2023-02-17T15:09:15.864Z,13.75
2023-02-17T15:11:48.794Z,13.78
2023-02-17T15:14:19.831Z,13.55
2023-02-17T15:16:48.382Z,13.20
2023-02-17T15:19:18.373Z,13.80
2023-02-17T15:21:50.769Z,13.72
2023-02-17T15:24:25.204Z,15.70
2023-02-17T15:26:55.198Z,13.98
2023-02-17T15:29:27.032Z,14.58
2023-02-17T15:32:00.940Z,14.85
2023-02-17T15:34:33.067Z,14.20
2023-02-17T15:37:01.780Z,14.50
2023-02-17T15:39:30.863Z,14.53
2023-02-17T15:42:02.847Z,14.60
2023-02-17T15:44:46.990Z,15.15
2023-02-17T15:47:18.672Z,14.73
2023-02-17T15:49:47.063Z,16.42
2023-02-17T15:52:15.845Z,15.90
2023-02-17T15:54:44.952Z,16.93
2023-02-17T15:57:22.535Z,17.27
2023-02-17T15:59:53.181Z,17.10
2023-02-17T16:02:24.729Z,17.60
2023-02-17T16:04:55.035Z,17.20
2023-02-17T16:07:23.721Z,17.07
2023-02-17T16:09:53.261Z,15.95
2023-02-17T16:12:23.459Z,14.98
2023-02-17T16:14:52.162Z,15.08
2023-02-17T16:17:23.787Z,14.58
2023-02-17T16:19:52.617Z,16.12
2023-02-17T16:22:21.382Z,14.90
2023-02-17T16:24:51.524Z,16.00
2023-02-17T16:27:23.654Z,16.20
2023-02-17T16:29:52.612Z,16.05
2023-02-17T16:32:21.207Z,16.32
2023-02-17T16:34:50.486Z,17.07
2023-02-17T16:37:19.437Z,16.95
2023-02-17T16:39:48.263Z,15.53
2023-02-17T16:42:17.099Z,16.40
2023-02-17T16:44:47.490Z,18.07
2023-02-17T16:47:22.054Z,17.85
2023-02-17T16:49:51.668Z,16.50
2023-02-17T16:52:26.390Z,17.15
2023-02-17T16:54:56.717Z,14.70
2023-02-17T16:57:26.012Z,16.87
2023-02-17T16:59:58.542Z,16.85
2023-02-17T17:02:28.251Z,16.10
2023-02-17T17:04:58.680Z,17.02
2023-02-17T17:07:27.911Z,16.55
2023-02-17T17:10:15.403Z,17.62
2023-02-17T17:12:27.168Z,16.52
2023-02-17T17:14:57.064Z,15.72
2023-02-17T17:17:25.530Z,16.93
2023-02-17T17:19:54.416Z,16.97
2023-02-17T17:22:23.403Z,17.65
2023-02-17T17:24:52.075Z,16.37
2023-02-17T17:27:20.884Z,17.25
2023-02-17T17:29:50.301Z,17.50
2023-02-17T17:32:19.194Z,16.45
2023-02-17T17:34:50.820Z,15.70
2023-02-17T17:37:20.273Z,15.68
2023-02-17T17:39:50.103Z,16.50
2023-02-17T17:42:18.995Z,16.20
2023-02-17T17:44:49.199Z,16.07
2023-02-17T17:47:29.516Z,15.40
2023-02-17T17:49:52.444Z,16.77
2023-02-17T17:52:21.027Z,16.82
2023-02-17T17:54:50.830Z,16.75
2023-02-17T17:57:19.509Z,16.15
2023-02-17T17:59:48.178Z,17.25
2023-02-17T18:02:16.839Z,16.85
2023-02-17T18:04:45.592Z,17.90
2023-02-17T18:07:14.197Z,16.55
2023-02-17T18:09:43.766Z,16.80
2023-02-17T18:12:16.019Z,15.93
2023-02-17T18:14:47.202Z,17.12
2023-02-17T18:17:18.320Z,17.30
2023-02-17T18:19:48.552Z,17.73
2023-02-17T18:22:17.304Z,17.85
2023-02-17T18:24:47.501Z,19.07
2023-02-17T18:27:16.109Z,19.32
2023-02-17T18:29:44.797Z,18.55
2023-02-17T18:32:14.930Z,20.12
2023-02-17T18:34:45.454Z,20.85
2023-02-17T18:37:13.977Z,19.52
2023-02-17T18:39:42.977Z,18.30
2023-02-17T18:42:12.508Z,18.42
2023-02-17T18:44:41.296Z,18.35
2023-02-17T18:47:09.978Z,17.73
2023-02-17T18:49:40.772Z,17.32
2023-02-17T18:52:10.424Z,16.35
2023-02-17T18:54:44.394Z,16.75
2023-02-17T18:57:15.332Z,17.73
2023-02-17T18:59:44.855Z,17.05
2023-02-17T19:02:13.744Z,16.60
2023-02-17T19:04:42.750Z,17.75
2023-02-17T19:07:11.514Z,17.85
2023-02-17T19:09:44.881Z,17.25
2023-02-17T19:12:14.979Z,15.90
2023-02-17T19:14:43.653Z,16.95
2023-02-17T19:17:12.479Z,16.73
2023-02-17T19:19:41.404Z,15.83
2023-02-17T19:22:10.925Z,17.25
2023-02-17T19:24:40.256Z,15.95
2023-02-17T19:27:08.794Z,16.57
2023-02-17T19:29:38.538Z,17.32
2023-02-17T19:32:08.666Z,17.50
2023-02-17T19:34:38.848Z,17.52
2023-02-17T19:37:07.314Z,16.42
2023-02-17T19:39:36.573Z,14.85
2023-02-17T19:42:05.248Z,17.30
2023-02-17T19:44:36.612Z,16.65
2023-02-17T19:47:05.228Z,16.23
2023-02-17T19:49:34.642Z,17.92
2023-02-17T19:52:03.462Z,15.80
2023-02-17T19:54:32.630Z,17.98
2023-02-17T19:57:01.078Z,16.40
2023-02-17T19:59:33.462Z,16.97
2023-02-17T20:02:02.210Z,16.65
2023-02-17T20:04:30.938Z,16.23
2023-02-17T20:06:59.517Z,14.98
2023-02-17T20:09:28.866Z,16.25
2023-02-17T20:11:57.253Z,16.42
2023-02-17T20:14:25.688Z,16.45
2023-02-17T20:16:56.050Z,17.30
2023-02-17T20:19:25.454Z,17.05
2023-02-17T20:21:54.356Z,17.48
2023-02-17T20:24:24.466Z,17.15
2023-02-17T20:26:53.359Z,16.30
2023-02-17T20:29:23.254Z,15.85
2023-02-17T20:31:52.261Z,16.73
2023-02-17T20:34:37.985Z,16.25
2023-02-17T20:37:09.132Z,15.48
2023-02-17T20:39:42.056Z,16.23
2023-02-17T20:42:11.651Z,15.80
2023-02-17T20:44:42.530Z,16.37
2023-02-17T20:47:11.580Z,16.37
2023-02-17T20:49:40.398Z,15.90
2023-02-17T20:52:09.986Z,15.85
2023-02-17T20:54:39.368Z,15.65
2023-02-17T20:57:14.926Z,16.10
2023-02-17T20:59:45.504Z,15.40
2023-02-17T21:02:14.269Z,15.60
2023-02-17T21:04:42.800Z,15.93
2023-02-17T21:07:12.962Z,15.25
2023-02-17T21:09:43.174Z,16.35
2023-02-17T21:12:12.716Z,16.77
2023-02-17T21:14:42.800Z,16.75
2023-02-17T21:17:11.554Z,16.82
2023-02-17T21:19:40.511Z,16.85
2023-02-17T21:22:10.605Z,17.92
2023-02-17T21:24:40.798Z,16.17
2023-02-17T21:27:11.039Z,16.15
2023-02-17T21:29:41.430Z,16.80
2023-02-17T21:32:10.176Z,16.17
2023-02-17T21:34:40.443Z,16.57
2023-02-17T21:37:09.228Z,16.07
2023-02-17T21:39:37.788Z,17.35
2023-02-17T21:42:06.456Z,16.50
2023-02-17T21:44:52.250Z,19.05
2023-02-17T21:47:21.413Z,18.30
2023-02-17T21:49:54.084Z,16.80
2023-02-17T21:52:22.775Z,17.20
2023-02-17T21:54:53.469Z,17.25
2023-02-17T21:57:22.413Z,18.00
2023-02-17T21:59:53.955Z,19.00
2023-02-17T22:02:22.356Z,17.37
2023-02-17T22:04:56.169Z,17.30
2023-02-17T22:07:25.048Z,17.15
2023-02-17T22:09:53.724Z,18.02
2023-02-17T22:12:22.874Z,18.65
2023-02-17T22:14:51.827Z,18.30
2023-02-17T22:17:21.791Z,17.62
2023-02-17T22:19:50.251Z,17.92
2023-02-17T22:22:18.892Z,18.55
2023-02-17T22:24:48.121Z,19.12
2023-02-17T22:27:16.640Z,18.73
2023-02-17T22:29:45.468Z,18.52
2023-02-17T22:32:14.481Z,18.62
2023-02-17T22:34:43.069Z,19.05
2023-02-17T22:37:11.986Z,19.87
2023-02-17T22:39:43.394Z,18.73
2023-02-17T22:42:13.068Z,19.87
2023-02-17T22:44:41.695Z,19.75
2023-02-17T22:47:10.310Z,19.77
2023-02-17T22:49:38.782Z,18.67
2023-02-17T22:52:07.360Z,18.87
2023-02-17T22:54:35.918Z,18.32
2023-02-17T22:57:06.165Z,19.12
2023-02-17T22:59:35.640Z,19.20
2023-02-17T23:02:05.991Z,19.42
2023-02-17T23:04:35.690Z,18.23
2023-02-17T23:07:04.155Z,20.60
2023-02-17T23:09:33.208Z,18.75
2023-02-17T23:12:01.958Z,18.98
2023-02-17T23:14:35.209Z,19.27
2023-02-17T23:17:09.135Z,18.62
2023-02-17T23:19:38.069Z,18.00
2023-02-17T23:22:14.126Z,17.98
2023-02-17T23:24:44.709Z,19.15
2023-02-17T23:27:15.114Z,17.37
2023-02-17T23:29:44.137Z,18.62
2023-02-17T23:32:13.175Z,17.95
2023-02-17T23:34:41.928Z,18.10
2023-02-17T23:37:14.889Z,19.30
2023-02-17T23:39:43.572Z,19.25
2023-02-17T23:42:13.852Z,18.60
2023-02-17T23:44:44.179Z,18.52
2023-02-17T23:47:14.429Z,19.73
2023-02-17T23:49:43.643Z,18.23
2023-02-17T23:52:12.397Z,18.62
2023-02-17T23:54:44.193Z,19.45
2023-02-17T23:57:14.119Z,19.80
2023-02-17T23:59:42.958Z,19.05
